Time;durP1;ratioP1;P1;durP2;ratioP2;P2;SDS_P1;SDS_P2;PMS_P1;PMS_P2;Temp;Humidity;BMP_temperature;BMP_pressure;BME280_temperature;BME280_humidity;BME280_pressure;Samples;Min_cycle;Max_cycle;Signal;HPM_P1;HPM_P2
2024/03/23 00:00:48;;;;;;;7.60;4.45;;;;;;;14.52;64.06;100294.72;5057295;28;20048;-74
2024/03/23 00:03:53;;;;;;;7.45;4.95;;;;;;;14.18;65.17;100296.53;5057015;28;20155;-74
2024/03/23 00:06:59;;;;;;;7.35;4.97;;;;;;;14.30;65.04;100297.94;5056911;28;20052;-74
2024/03/23 00:10:04;;;;;;;7.25;4.78;;;;;;;14.55;63.68;100288.16;5056959;28;20048;-74
2024/03/23 00:13:10;;;;;;;8.35;4.95;;;;;;;14.53;63.58;100290.19;5056523;28;20055;-74
2024/03/23 00:16:15;;;;;;;11.85;5.10;;;;;;;14.38;64.11;100292.63;5056409;28;20060;-73
2024/03/23 00:19:21;;;;;;;9.98;5.38;;;;;;;14.50;63.42;100293.19;5056283;28;20044;-74
2024/03/23 00:22:26;;;;;;;9.50;4.53;;;;;;;14.82;62.51;100288.78;5044355;28;20091;-74
2024/03/23 00:25:32;;;;;;;9.63;5.13;;;;;;;14.64;63.41;100288.03;5056582;28;20491;-74
2024/03/23 00:28:37;;;;;;;7.55;4.60;;;;;;;14.31;64.63;100286.19;5056690;28;20044;-74
2024/03/23 00:31:43;;;;;;;7.47;4.70;;;;;;;14.31;64.59;100280.78;5056695;28;20056;-75
2024/03/23 00:34:49;;;;;;;7.40;5.07;;;;;;;14.42;64.27;100277.78;5044087;28;20048;-73
2024/03/23 00:37:54;;;;;;;7.72;5.07;;;;;;;14.44;64.44;100274.97;5044206;28;20048;-73
2024/03/23 00:40:59;;;;;;;10.07;6.35;;;;;;;14.45;64.97;100268.53;5056236;28;20051;-73
2024/03/23 00:44:05;;;;;;;8.07;5.35;;;;;;;14.52;64.83;100258.75;5056333;28;20071;-74
2024/03/23 00:47:11;;;;;;;11.90;6.63;;;;;;;14.35;65.75;100260.56;5043719;28;20400;-74
2024/03/23 00:50:16;;;;;;;10.73;6.70;;;;;;;14.23;66.31;100254.56;5055852;28;20052;-74
2024/03/23 00:53:21;;;;;;;9.10;5.97;;;;;;;14.20;66.79;100264.81;5056010;28;20163;-74
2024/03/23 00:56:26;;;;;;;8.57;5.40;;;;;;;14.65;65.56;100256.47;5056729;28;20044;-74
2024/03/23 00:59:31;;;;;;;8.63;5.85;;;;;;;14.64;65.27;100266.41;5055780;28;20056;-74
2024/03/23 01:02:35;;;;;;;8.77;6.45;;;;;;;14.31;66.10;100253.78;5056073;28;20052;-74
2024/03/23 01:05:40;;;;;;;7.32;5.25;;;;;;;14.23;66.27;100245.59;5055917;28;20052;-73
2024/03/23 01:08:45;;;;;;;7.95;5.40;;;;;;;14.29;66.53;100251.19;5055642;28;20067;-74
2024/03/23 01:11:50;;;;;;;9.85;5.50;;;;;;;14.44;65.42;100248.81;5055900;28;20059;-74
2024/03/23 01:14:54;;;;;;;8.18;5.50;;;;;;;14.30;65.79;100241.25;5055615;28;20134;-74
2024/03/23 01:17:59;;;;;;;9.05;5.80;;;;;;;14.37;65.39;100236.94;5055842;28;20056;-73
2024/03/23 01:21:04;;;;;;;8.65;5.78;;;;;;;14.64;64.27;100235.88;5055664;28;20051;-74
2024/03/23 01:24:10;;;;;;;6.82;4.93;;;;;;;14.82;63.95;100229.34;5043274;28;20079;-75
2024/03/23 01:27:15;;;;;;;7.40;5.47;;;;;;;14.47;64.89;100232.25;5055623;28;20048;-74
2024/03/23 01:30:20;;;;;;;7.60;5.10;;;;;;;14.66;63.87;100232.00;5055554;28;20056;-74
2024/03/23 01:33:24;;;;;;;10.07;5.75;;;;;;;14.34;65.25;100227.28;5055254;28;20075;-73
2024/03/23 01:36:28;;;;;;;10.00;5.60;;;;;;;14.58;64.66;100225.72;5055488;28;20052;-74
2024/03/23 01:39:33;;;;;;;9.05;5.03;;;;;;;14.74;63.71;100221.19;5055259;28;20483;-74
2024/03/23 01:42:38;;;;;;;9.90;5.00;;;;;;;14.16;65.83;100210.31;5055367;28;20063;-74
2024/03/23 01:45:42;;;;;;;7.15;5.70;;;;;;;14.04;66.73;100205.34;5055121;28;20056;-74
2024/03/23 01:48:47;;;;;;;6.50;4.88;;;;;;;14.78;63.43;100198.25;5055226;28;20056;-74
2024/03/23 01:51:51;;;;;;;8.48;5.47;;;;;;;14.51;65.08;100201.22;5054399;28;20056;-74
2024/03/23 01:54:56;;;;;;;7.40;4.72;;;;;;;14.73;63.94;100210.56;5055553;28;20475;-74
2024/03/23 01:58:01;;;;;;;7.43;5.25;;;;;;;14.91;63.59;100206.72;5056466;28;20048;-73
2024/03/23 02:01:06;;;;;;;8.32;5.53;;;;;;;14.71;64.09;100196.38;5055826;28;20044;-73
2024/03/23 02:04:12;;;;;;;6.78;4.95;;;;;;;14.78;63.50;100209.06;5056184;28;20075;-74
2024/03/23 02:07:17;;;;;;;10.52;5.25;;;;;;;14.83;63.92;100200.47;5043091;28;20056;-73
2024/03/23 02:10:22;;;;;;;8.27;5.13;;;;;;;14.31;64.72;100197.09;5054823;28;20063;-74
2024/03/23 02:13:27;;;;;;;11.10;5.50;;;;;;;14.52;64.51;100202.91;5053808;28;20056;-73
2024/03/23 02:16:31;;;;;;;7.38;4.97;;;;;;;14.45;64.45;100198.31;5054452;28;20044;-73
2024/03/23 02:19:36;;;;;;;20.23;10.43;;;;;;;14.32;64.78;100199.63;5054546;28;20048;-74
2024/03/23 02:22:40;;;;;;;10.65;7.00;;;;;;;14.25;65.29;100201.25;5054626;28;20037;-74
2024/03/23 02:25:45;;;;;;;15.95;9.13;;;;;;;14.31;65.36;100189.84;5054506;28;20071;-74
2024/03/23 02:28:49;;;;;;;16.17;7.47;;;;;;;14.31;65.27;100197.09;5055192;28;20052;-74
2024/03/23 02:31:54;;;;;;;16.27;8.55;;;;;;;14.17;66.37;100195.78;5053789;28;20052;-73
2024/03/23 02:34:58;;;;;;;8.73;6.20;;;;;;;14.06;66.36;100193.41;5054445;28;20381;-74
2024/03/23 02:38:03;;;;;;;9.18;5.78;;;;;;;14.06;66.83;100189.84;5054521;28;20483;-73
2024/03/23 02:41:07;;;;;;;9.35;6.50;;;;;;;13.75;68.02;100194.91;5054296;28;20060;-74
2024/03/23 02:44:12;;;;;;;10.90;6.18;;;;;;;13.83;68.49;100191.38;5054648;28;20067;-74
2024/03/23 02:47:16;;;;;;;8.07;5.00;;;;;;;13.96;67.93;100186.41;5012591;28;20049;-74
2024/03/23 02:50:20;;;;;;;7.85;5.50;;;;;;;13.87;68.02;100179.28;5000473;28;20053;-74
2024/03/23 02:53:24;;;;;;;8.30;5.50;;;;;;;13.82;68.45;100174.38;5012384;28;20084;-73
2024/03/23 02:56:28;;;;;;;8.27;5.65;;;;;;;13.89;68.16;100174.56;5012343;28;20072;-73
2024/03/23 02:59:33;;;;;;;10.48;5.20;;;;;;;13.94;67.96;100172.25;5011338;28;20060;-74
2024/03/23 03:02:37;;;;;;;9.32;5.80;;;;;;;13.97;68.00;100163.81;5012230;28;20048;-74
2024/03/23 03:05:42;;;;;;;11.02;5.82;;;;;;;13.93;67.49;100166.00;4977419;28;20069;-74
2024/03/23 03:08:47;;;;;;;10.30;6.32;;;;;;;13.74;68.62;100159.97;5000823;28;20052;-74
2024/03/23 03:11:51;;;;;;;7.32;5.20;;;;;;;13.88;67.45;100157.53;5012166;28;20052;-73
2024/03/23 03:14:55;;;;;;;9.35;5.32;;;;;;;13.62;68.63;100146.78;5012049;28;20049;-74
2024/03/23 03:17:59;;;;;;;7.38;5.32;;;;;;;13.69;68.47;100149.66;5012398;28;20137;-74
2024/03/23 03:21:08;;;;;;;8.27;5.90;;;;;;;13.64;68.41;100144.75;5012013;28;20065;-72
2024/03/23 03:24:22;;;;;;;8.52;5.05;;;;;;;13.54;68.49;100146.72;5031767;28;20404;-73
2024/03/23 03:27:26;;;;;;;7.68;5.65;;;;;;;13.63;68.35;100134.97;5053739;28;20048;-73
2024/03/23 03:30:31;;;;;;;9.10;5.95;;;;;;;13.36;69.17;100135.13;5053233;28;20060;-75
2024/03/23 03:33:35;;;;;;;10.55;4.85;;;;;;;13.65;68.06;100137.53;5041099;28;20518;-74
2024/03/23 03:36:39;;;;;;;7.88;5.00;;;;;;;13.09;69.70;100134.41;5053398;28;20052;-74
2024/03/23 03:39:44;;;;;;;7.25;5.00;;;;;;;13.20;69.25;100135.00;5041064;28;20044;-74
2024/03/23 03:42:49;;;;;;;8.95;4.72;;;;;;;13.03;70.00;100133.97;5053392;28;20056;-74
2024/03/23 03:45:54;;;;;;;7.10;4.95;;;;;;;13.12;68.37;100124.16;5053246;28;20384;-74
2024/03/23 03:48:58;;;;;;;8.63;4.68;;;;;;;13.00;69.28;100120.00;5040992;28;20408;-74
2024/03/23 03:52:02;;;;;;;7.82;4.45;;;;;;;13.22;67.71;100114.13;5040913;28;20048;-74
2024/03/23 03:55:14;;;;;;;7.30;4.40;;;;;;;13.25;67.22;100110.28;5040945;28;20044;-75
2024/03/23 03:58:18;;;;;;;7.50;4.68;;;;;;;13.35;67.35;100109.19;5053266;28;20056;-72
2024/03/23 04:01:23;;;;;;;6.55;4.05;;;;;;;13.79;65.25;100114.47;5053530;28;20052;-75
2024/03/23 04:04:27;;;;;;;10.63;4.57;;;;;;;13.54;65.65;100108.97;5040612;28;20056;-73
2024/03/23 04:07:32;;;;;;;6.55;4.40;;;;;;;13.52;65.74;100108.28;5052987;28;20064;-74
2024/03/23 04:10:36;;;;;;;6.50;4.40;;;;;;;13.58;65.73;100101.38;5053088;28;20384;-73
2024/03/23 04:13:41;;;;;;;8.50;4.32;;;;;;;13.51;65.40;100097.63;5052994;28;20521;-72
2024/03/23 04:16:45;;;;;;;8.65;4.80;;;;;;;13.48;65.25;100089.88;5052952;28;20048;-72
2024/03/23 04:19:52;;;;;;;8.23;4.43;;;;;;;13.65;65.19;100086.28;5053011;28;20056;-72
2024/03/23 04:22:56;;;;;;;9.30;5.00;;;;;;;13.78;64.73;100089.34;5053042;28;20056;-73
2024/03/23 04:26:05;;;;;;;9.02;5.00;;;;;;;13.74;64.77;100077.22;5053022;28;20060;-73
2024/03/23 04:29:09;;;;;;;4.93;3.30;;;;;;;13.86;63.91;100080.44;5052840;28;20063;-72
2024/03/23 04:32:17;;;;;;;7.15;3.95;;;;;;;13.96;63.96;100076.63;5040563;28;20052;-73
2024/03/23 04:35:24;;;;;;;5.97;3.75;;;;;;;13.85;64.56;100074.19;5040855;28;20056;-73
2024/03/23 04:38:29;;;;;;;5.68;4.00;;;;;;;13.85;64.26;100086.88;5056299;28;20048;-73
2024/03/23 04:41:35;;;;;;;7.38;4.13;;;;;;;13.91;64.05;100078.13;5056491;28;20055;-73
2024/03/23 04:44:39;;;;;;;7.90;4.78;;;;;;;13.33;66.64;100070.72;5044278;28;20056;-73
2024/03/23 04:47:44;;;;;;;7.65;4.32;;;;;;;13.12;67.57;100066.72;5021389;28;20048;-74
2024/03/23 04:50:49;;;;;;;8.23;4.50;;;;;;;12.76;69.12;100064.06;5055753;28;20056;-73
2024/03/23 04:53:53;;;;;;;7.93;4.20;;;;;;;12.80;69.24;100054.66;5056223;28;20060;-73
2024/03/23 04:56:58;;;;;;;10.63;5.07;;;;;;;12.89;69.06;100071.72;5056029;28;20044;-73
2024/03/23 05:00:12;;;;;;;8.38;5.13;;;;;;;12.82;68.59;100073.34;5055764;28;20048;-72
2024/03/23 05:03:17;;;;;;;8.25;4.93;;;;;;;12.55;70.09;100068.91;5056109;28;20055;-74
2024/03/23 05:06:21;;;;;;;6.60;4.50;;;;;;;12.97;68.66;100067.25;5056098;28;20040;-74
2024/03/23 05:09:29;;;;;;;6.20;5.22;;;;;;;12.97;68.70;100069.09;5056321;28;20478;-74
2024/03/23 05:12:34;;;;;;;9.57;4.85;;;;;;;12.81;69.18;100067.13;5043549;28;20048;-73
2024/03/23 05:15:39;;;;;;;7.28;4.88;;;;;;;12.68;70.02;100072.06;5056076;28;20052;-72
2024/03/23 05:18:43;;;;;;;6.47;4.43;;;;;;;12.50;70.21;100082.00;5055235;28;20052;-73
2024/03/23 05:21:48;;;;;;;8.35;4.88;;;;;;;12.33;71.22;100062.16;5055764;28;20060;-72
2024/03/23 05:24:53;;;;;;;7.13;4.88;;;;;;;12.82;69.24;100078.75;5055605;28;20072;-73
2024/03/23 05:27:57;;;;;;;7.43;4.53;;;;;;;12.67;69.13;100064.13;4994175;28;20049;-73
2024/03/23 05:31:02;;;;;;;12.02;4.90;;;;;;;12.75;69.48;100069.59;4994231;28;20073;-73
2024/03/23 05:34:06;;;;;;;9.98;5.15;;;;;;;12.82;69.07;100060.75;4994030;28;20133;-73
2024/03/23 05:37:11;;;;;;;7.30;4.65;;;;;;;12.89;67.93;100061.81;4993795;28;20054;-73
2024/03/23 05:40:15;;;;;;;7.57;4.55;;;;;;;13.12;67.27;100051.41;4994109;28;20053;-74
2024/03/23 05:43:21;;;;;;;7.90;4.05;;;;;;;13.59;65.90;100060.78;4993870;28;20057;-74
2024/03/23 05:46:25;;;;;;;6.88;4.40;;;;;;;13.84;64.79;100061.75;4993746;28;20057;-72
2024/03/23 05:49:29;;;;;;;5.70;3.67;;;;;;;12.97;66.68;100059.19;4993805;28;20437;-72
2024/03/23 05:52:34;;;;;;;6.63;4.22;;;;;;;13.46;65.09;100052.28;4994188;28;20537;-73
2024/03/23 05:55:38;;;;;;;8.15;4.28;;;;;;;14.04;62.95;100059.63;4982416;28;20053;-73
2024/03/23 05:58:43;;;;;;;7.57;4.25;;;;;;;14.22;61.74;100058.47;4993696;28;20057;-73
2024/03/23 06:01:47;;;;;;;9.55;3.97;;;;;;;14.09;62.03;100059.97;4982555;28;20061;-74
2024/03/23 06:04:52;;;;;;;8.82;3.88;;;;;;;14.58;60.55;100053.69;5023415;28;20056;-74
2024/03/23 06:07:56;;;;;;;7.60;3.60;;;;;;;14.84;58.70;100048.97;5042645;28;20052;-74
2024/03/23 06:11:01;;;;;;;6.70;4.65;;;;;;;15.28;58.66;100054.00;5054537;28;20044;-74
2024/03/23 06:14:05;;;;;;;11.50;7.05;;;;;;;15.02;58.41;100046.09;5054767;28;20111;-73
2024/03/23 06:17:10;;;;;;;15.30;9.18;;;;;;;14.93;58.04;100049.81;5054129;28;20060;-74
2024/03/23 06:20:15;;;;;;;15.05;9.98;;;;;;;14.61;59.61;100037.16;5054800;28;20076;-74
2024/03/23 06:23:20;;;;;;;12.63;8.73;;;;;;;15.19;57.65;100027.97;5054661;28;20068;-74
2024/03/23 06:26:24;;;;;;;8.40;6.32;;;;;;;15.15;58.09;100024.78;5054515;28;20155;-74
2024/03/23 06:29:28;;;;;;;7.47;5.40;;;;;;;15.21;57.67;100025.97;5049077;28;20501;-73
2024/03/23 06:32:33;;;;;;;7.45;4.70;;;;;;;15.74;56.63;100031.56;5074280;28;20059;-73
2024/03/23 06:35:37;;;;;;;9.30;4.65;;;;;;;15.75;56.99;100033.22;5074277;28;20063;-72
2024/03/23 06:38:42;;;;;;;8.82;4.68;;;;;;;15.00;59.75;100023.78;5071553;28;20406;-71
2024/03/23 06:41:52;;;;;;;9.10;4.75;;;;;;;15.31;58.33;100013.91;5054185;28;20044;-71
2024/03/23 06:44:57;;;;;;;18.33;7.10;;;;;;;15.22;59.61;100019.53;5054109;28;20056;-73
2024/03/23 06:48:03;;;;;;;50.63;18.92;;;;;;;15.03;60.00;100011.78;5054132;28;20044;-73
2024/03/23 06:51:09;;;;;;;77.70;34.97;;;;;;;15.12;59.80;100010.75;5035426;28;20044;-73
2024/03/23 06:54:13;;;;;;;64.60;31.52;;;;;;;15.44;59.59;100011.53;5073044;28;20048;-77
2024/03/23 06:57:18;;;;;;;65.45;30.20;;;;;;;15.31;59.72;100004.94;5073280;28;20044;-75
2024/03/23 07:00:25;;;;;;;46.40;22.55;;;;;;;15.28;58.58;100006.13;5073715;28;20372;-75
2024/03/23 07:03:29;;;;;;;56.15;24.80;;;;;;;15.87;58.00;100002.06;5071612;28;20040;-75
2024/03/23 07:06:34;;;;;;;64.60;30.95;;;;;;;16.59;56.18;99989.09;5072195;28;20411;-76
2024/03/23 07:09:39;;;;;;;65.88;31.52;;;;;;;16.68;55.52;99990.72;5073708;28;20051;-76
2024/03/23 07:12:44;;;;;;;52.20;26.73;;;;;;;16.94;54.48;99983.00;5073082;28;20119;-76
2024/03/23 07:15:53;;;;;;;53.63;24.05;;;;;;;17.17;52.36;99975.66;5073935;28;20052;-76
2024/03/23 07:18:58;;;;;;;48.03;23.17;;;;;;;16.92;53.01;99972.34;5073626;28;20384;-76
2024/03/23 07:22:03;;;;;;;44.88;21.67;;;;;;;17.14;52.56;99964.31;5073310;28;20534;-76
2024/03/23 07:25:16;;;;;;;42.17;20.38;;;;;;;17.75;51.54;99963.94;5073534;28;20055;-76
2024/03/23 07:28:21;;;;;;;;;;;;;;;17.99;50.10;99955.47;5073221;28;20059;-76
2024/03/23 07:31:26;;;;;;;36.30;17.35;;;;;;;18.05;50.42;99951.97;5073488;28;19916;-76
2024/03/23 07:34:31;;;;;;;36.05;15.90;;;;;;;18.35;49.51;99958.13;5073378;28;20067;-76
2024/03/23 07:37:35;;;;;;;39.33;19.08;;;;;;;18.63;49.61;99959.06;5061122;28;20047;-76
2024/03/23 07:40:41;;;;;;;39.78;17.92;;;;;;;18.95;48.94;99962.25;5073140;28;20151;-77
2024/03/23 07:43:47;;;;;;;33.90;17.83;;;;;;;19.36;48.41;99958.56;5073521;28;20060;-75
2024/03/23 07:46:52;;;;;;;39.30;17.67;;;;;;;19.96;46.92;99957.81;5073322;28;20059;-75
2024/03/23 07:49:56;;;;;;;30.45;15.05;;;;;;;21.02;43.50;99951.44;5070252;28;20068;-76
2024/03/23 07:53:01;;;;;;;28.40;15.35;;;;;;;22.99;38.51;99945.03;5053201;28;20052;-76
2024/03/23 07:56:08;;;;;;;27.65;13.90;;;;;;;24.67;35.54;99944.22;5053165;28;20475;-76
2024/03/23 07:59:12;;;;;;;24.48;13.45;;;;;;;26.41;33.00;99948.47;5040953;28;20067;-77
2024/03/23 08:02:17;;;;;;;22.95;13.05;;;;;;;28.00;30.69;99948.72;5053012;28;20052;-77
2024/03/23 08:05:21;;;;;;;31.73;15.75;;;;;;;29.63;30.69;99948.00;5040777;28;20055;-77
2024/03/23 08:08:26;;;;;;;30.88;15.38;;;;;;;30.69;28.79;99954.75;5040982;28;20048;-76
2024/03/23 08:11:36;;;;;;;25.98;15.25;;;;;;;31.36;27.73;99937.81;5043204;28;20119;-77
2024/03/23 08:14:41;;;;;;;24.80;14.48;;;;;;;31.62;27.63;99933.06;5056948;28;20068;-77
2024/03/23 08:17:45;;;;;;;28.38;14.57;;;;;;;31.84;28.31;99924.38;5056939;28;20044;-77
2024/03/23 08:21:01;;;;;;;27.42;14.80;;;;;;;32.44;28.71;99914.91;5056924;28;20108;-77
2024/03/23 08:24:06;;;;;;;23.48;12.60;;;;;;;32.87;27.81;99902.91;5032996;28;20043;-77
2024/03/23 08:27:10;;;;;;;16.23;11.35;;;;;;;33.52;27.11;99911.75;5056787;28;20067;-77
2024/03/23 08:30:14;;;;;;;12.13;8.23;;;;;;;34.88;25.82;99912.66;5044347;28;20051;-77
2024/03/23 08:33:21;;;;;;;11.35;6.57;;;;;;;35.78;23.88;99907.34;5056570;28;20052;-78
2024/03/23 08:36:28;;;;;;;8.43;5.60;;;;;;;36.40;23.56;99925.25;5044698;28;20562;-77
2024/03/23 08:39:34;;;;;;;8.23;4.63;;;;;;;37.44;22.29;99922.94;5056619;28;20055;-77
2024/03/23 08:42:39;;;;;;;8.98;4.85;;;;;;;37.41;22.39;99914.34;5056504;28;20044;-78
2024/03/23 08:45:43;;;;;;;6.97;3.25;;;;;;;37.75;21.92;99928.53;5043682;28;20507;-78
2024/03/23 08:48:48;;;;;;;4.97;3.03;;;;;;;38.06;21.45;99931.28;5056210;28;20386;-75
2024/03/23 08:51:54;;;;;;;7.30;3.05;;;;;;;37.86;21.69;99921.50;5055648;28;20172;-77
2024/03/23 08:55:00;;;;;;;4.80;2.00;;;;;;;38.34;20.69;99913.03;5056047;28;20392;-78
2024/03/23 08:58:04;;;;;;;6.00;2.85;;;;;;;37.09;21.42;99902.31;5056153;28;20048;-78
2024/03/23 09:01:13;;;;;;;4.68;2.65;;;;;;;35.96;22.88;99889.63;5056072;28;20048;-78
2024/03/23 09:04:17;;;;;;;3.70;2.08;;;;;;;36.99;21.46;99891.38;5056152;28;20048;-78
2024/03/23 09:07:21;;;;;;;7.25;3.10;;;;;;;36.84;22.41;99879.75;5014523;28;20056;-78
2024/03/23 09:10:26;;;;;;;4.20;2.92;;;;;;;36.36;23.37;99885.09;5013959;28;20177;-78
2024/03/23 09:13:30;;;;;;;7.95;3.17;;;;;;;36.19;23.66;99883.00;5002903;28;20405;-77
2024/03/23 09:16:35;;;;;;;4.88;2.38;;;;;;;36.89;22.40;99882.38;5014398;28;20142;-77
2024/03/23 09:19:39;;;;;;;4.32;2.63;;;;;;;37.43;21.58;99875.69;5003048;28;20072;-78
2024/03/23 09:22:44;;;;;;;5.28;2.63;;;;;;;36.05;23.20;99882.19;5014391;28;20060;-78
2024/03/23 09:25:48;;;;;;;7.82;4.60;;;;;;;34.32;23.82;99894.00;5014170;28;20053;-78
2024/03/23 09:28:53;;;;;;;4.65;2.30;;;;;;;32.55;25.36;99891.50;5014051;28;20138;-78
2024/03/23 09:31:57;;;;;;;4.47;1.95;;;;;;;31.12;27.13;99877.69;5013924;28;20068;-77
2024/03/23 09:35:02;;;;;;;3.88;1.80;;;;;;;29.77;28.40;99871.72;5013838;28;20449;-78
2024/03/23 09:38:09;;;;;;;14.10;2.30;;;;;;;29.41;28.91;99872.63;5039074;28;20064;-77
2024/03/23 09:41:15;;;;;;;5.65;1.52;;;;;;;29.46;29.05;99864.38;5042440;28;20161;-77
2024/03/23 09:44:19;;;;;;;5.15;2.00;;;;;;;28.80;29.71;99849.31;5055457;28;20056;-77
2024/03/23 09:47:25;;;;;;;3.47;1.48;;;;;;;28.13;30.50;99862.78;5055364;28;20055;-77
2024/03/23 09:50:29;;;;;;;4.18;1.50;;;;;;;28.45;30.59;99852.59;5042679;28;20052;-77
2024/03/23 09:53:35;;;;;;;5.38;1.88;;;;;;;28.02;30.85;99847.22;5055250;28;20055;-77
2024/03/23 09:56:40;;;;;;;2.70;1.40;;;;;;;27.62;31.88;99844.81;5055198;28;20381;-77
2024/03/23 09:59:45;;;;;;;4.88;1.98;;;;;;;27.18;31.96;99841.19;5055404;28;20055;-77
2024/03/23 10:02:50;;;;;;;2.83;1.63;;;;;;;27.08;32.82;99841.88;5042408;28;20052;-77
2024/03/23 10:06:02;;;;;;;5.50;1.80;;;;;;;26.94;32.55;99834.22;5054816;28;20057;-75
2024/03/23 10:09:20;;;;;;;5.25;1.67;;;;;;;26.91;33.23;99824.53;5054816;28;20119;-76
2024/03/23 10:12:25;;;;;;;3.97;1.38;;;;;;;26.60;33.60;99819.66;5054564;28;20499;-75
2024/03/23 10:15:33;;;;;;;5.38;2.10;;;;;;;26.37;33.03;99801.38;5042392;28;20388;-76
2024/03/23 10:18:39;;;;;;;5.47;3.50;;;;;;;26.23;35.25;99811.06;5054760;28;20495;-76
2024/03/23 10:21:52;;;;;;;10.25;6.82;;;;;;;26.19;36.78;99809.91;5054711;28;20364;-75
2024/03/23 10:25:08;;;;;;;14.98;9.85;;;;;;;25.97;39.62;99802.59;5042476;28;20092;-77
2024/03/23 10:28:12;;;;;;;17.73;11.40;;;;;;;26.00;40.49;99786.41;5042050;28;20499;-75
2024/03/23 10:31:17;;;;;;;16.45;10.93;;;;;;;25.74;38.94;99778.78;5054490;28;20044;-76
2024/03/23 10:34:26;;;;;;;13.40;9.32;;;;;;;25.30;39.68;99776.81;5053827;28;20080;-77
2024/03/23 10:37:33;;;;;;;14.60;10.18;;;;;;;25.13;40.30;99763.81;5054261;28;20044;-77
2024/03/23 10:40:39;;;;;;;17.20;11.50;;;;;;;25.04;40.21;99751.56;5053901;28;20052;-76
2024/03/23 10:43:50;;;;;;;17.85;13.60;;;;;;;25.10;39.81;99747.00;5054116;28;20052;-75
2024/03/23 10:46:59;;;;;;;21.45;13.02;;;;;;;24.53;41.22;99751.50;5041837;28;20052;-78
2024/03/23 10:50:07;;;;;;;19.83;13.48;;;;;;;24.34;42.60;99753.50;5053897;28;20064;-77
2024/03/23 10:53:13;;;;;;;25.20;16.33;;;;;;;24.29;42.14;99756.16;5053797;28;20052;-77
2024/03/23 10:56:19;;;;;;;21.35;14.93;;;;;;;24.28;42.25;99743.50;5053995;28;20181;-74
2024/03/23 10:59:25;;;;;;;24.85;15.25;;;;;;;24.21;43.31;99733.72;5053819;28;20157;-75
2024/03/23 11:02:30;;;;;;;22.90;14.98;;;;;;;24.18;43.40;99737.78;5041301;28;20056;-77
2024/03/23 11:05:35;;;;;;;19.63;12.70;;;;;;;24.00;43.28;99735.09;5053740;28;20056;-77
2024/03/23 11:08:45;;;;;;;17.63;12.18;;;;;;;24.03;43.61;99731.03;5030389;28;20052;-75
2024/03/23 11:11:49;;;;;;;14.32;7.75;;;;;;;24.13;41.71;99739.53;5041338;28;20499;-74
2024/03/23 11:14:59;;;;;;;10.77;7.22;;;;;;;24.27;40.81;99728.09;5053536;28;20064;-77
2024/03/23 11:18:05;;;;;;;11.85;6.95;;;;;;;24.09;41.93;99710.94;5029843;28;20111;-77
2024/03/23 11:21:10;;;;;;;13.15;7.90;;;;;;;24.04;42.26;99694.34;5053553;28;20056;-76
2024/03/23 11:24:15;;;;;;;14.05;7.75;;;;;;;23.99;43.06;99669.53;5041218;28;20056;-75
2024/03/23 11:27:21;;;;;;;9.98;6.13;;;;;;;23.95;42.49;99656.28;5053522;28;20048;-78
2024/03/23 11:30:31;;;;;;;7.78;2.30;;;;;;;24.39;41.44;99648.56;5053180;28;20048;-76
2024/03/23 11:33:35;;;;;;;4.78;1.73;;;;;;;24.46;38.97;99654.75;5053403;28;20048;-76
2024/03/23 11:36:40;;;;;;;7.15;2.50;;;;;;;24.06;37.91;99653.78;5053410;28;20104;-77
2024/03/23 11:39:48;;;;;;;6.82;1.92;;;;;;;24.12;37.48;99648.22;5053624;28;20048;-76
2024/03/23 11:42:56;;;;;;;5.68;1.80;;;;;;;24.55;36.52;99636.81;5053206;28;20495;-76
2024/03/23 11:46:03;;;;;;;5.65;1.52;;;;;;;24.74;37.26;99629.25;5054870;28;20058;-75
2024/03/23 11:49:21;;;;;;;6.07;1.80;;;;;;;24.61;36.45;99611.16;5045165;28;20404;-76
2024/03/23 11:52:26;;;;;;;5.65;1.90;;;;;;;24.44;37.52;99616.56;5057369;28;20052;-76
2024/03/23 11:55:42;;;;;;;5.32;1.45;;;;;;;24.42;38.19;99609.63;5033620;28;20056;-76
2024/03/23 11:58:48;;;;;;;4.93;1.52;;;;;;;24.28;38.48;99606.34;5045050;28;20048;-76
2024/03/23 12:01:53;;;;;;;4.03;1.55;;;;;;;24.71;37.89;99611.38;5057207;28;20072;-77
2024/03/23 12:04:58;;;;;;;7.05;2.20;;;;;;;24.51;38.22;99592.59;5033426;28;20095;-75
2024/03/23 12:08:24;;;;;;;7.20;1.58;;;;;;;25.19;37.31;99589.78;5044760;28;20047;-76
2024/03/23 12:11:29;;;;;;;3.85;1.42;;;;;;;24.21;37.99;99586.44;5056984;28;20048;-76
2024/03/23 12:14:34;;;;;;;4.00;1.75;;;;;;;23.73;38.21;99583.94;5056567;28;20060;-76
2024/03/23 12:17:38;;;;;;;6.82;2.22;;;;;;;23.96;38.21;99577.63;5056639;28;20068;-76
2024/03/23 12:20:43;;;;;;;6.40;1.75;;;;;;;23.35;40.58;99575.31;5056809;28;20056;-76
2024/03/23 12:23:48;;;;;;;4.38;1.58;;;;;;;23.11;41.49;99563.47;5056901;28;20048;-78
2024/03/23 12:26:53;;;;;;;5.53;1.45;;;;;;;23.17;40.36;99556.22;5044562;28;20052;-77
2024/03/23 12:29:58;;;;;;;3.63;1.52;;;;;;;23.51;38.43;99554.63;5056524;28;20479;-77
2024/03/23 12:33:03;;;;;;;4.15;1.90;;;;;;;24.02;38.29;99540.19;5057025;28;20479;-76
2024/03/23 12:36:07;;;;;;;5.20;1.80;;;;;;;23.78;39.50;99537.47;5044371;28;20052;-76
2024/03/23 12:39:12;;;;;;;6.07;1.90;;;;;;;23.05;40.55;99531.56;5044153;28;20060;-76
2024/03/23 12:42:16;;;;;;;5.00;1.83;;;;;;;23.31;40.10;99524.81;5056547;28;20396;-76
2024/03/23 12:45:22;;;;;;;5.30;1.60;;;;;;;23.88;39.05;99514.94;5056513;28;20094;-77
2024/03/23 12:48:26;;;;;;;3.75;1.50;;;;;;;24.31;38.66;99518.09;5056355;28;20053;-77
2024/03/23 12:51:31;;;;;;;4.35;1.73;;;;;;;23.76;39.17;99506.72;5059107;28;20404;-78
2024/03/23 12:54:37;;;;;;;4.82;2.25;;;;;;;23.55;39.15;99493.66;5076159;28;20060;-77
2024/03/23 12:57:42;;;;;;;6.85;1.63;;;;;;;23.01;39.77;99480.28;5075797;28;20051;-75
2024/03/23 13:00:46;;;;;;;6.15;1.35;;;;;;;23.23;40.07;99476.69;5075417;28;20063;-77
2024/03/23 13:03:50;;;;;;;8.07;1.70;;;;;;;23.27;40.84;99469.69;5076148;28;20052;-76
2024/03/23 13:06:55;;;;;;;6.75;1.20;;;;;;;23.49;39.95;99455.41;5075731;28;20050;-76
2024/03/23 13:10:00;;;;;;;3.10;1.13;;;;;;;23.54;40.07;99448.16;5075160;28;20051;-76
2024/03/23 13:13:04;;;;;;;3.00;1.23;;;;;;;23.53;40.55;99451.13;5075640;28;20055;-75
2024/03/23 13:16:09;;;;;;;3.78;1.20;;;;;;;23.39;41.10;99444.22;5075608;28;20071;-78
2024/03/23 13:19:13;;;;;;;2.72;0.95;;;;;;;23.26;41.15;99448.00;5075460;28;20483;-75
2024/03/23 13:22:18;;;;;;;5.10;2.65;;;;;;;23.48;40.77;99465.53;5075888;28;20055;-76
2024/03/23 13:25:22;;;;;;;4.53;1.73;;;;;;;23.79;38.17;99454.19;5074780;28;20051;-76
2024/03/23 13:28:27;;;;;;;7.75;1.20;;;;;;;23.83;37.19;99438.06;5075601;28;20051;-76
2024/03/23 13:31:31;;;;;;;2.63;0.95;;;;;;;24.25;37.08;99434.00;5075511;28;20048;-76
2024/03/23 13:34:36;;;;;;;2.95;1.25;;;;;;;24.49;35.81;99426.53;5074963;28;20048;-77
2024/03/23 13:37:41;;;;;;;5.97;1.30;;;;;;;24.49;36.70;99418.28;5074983;28;20055;-75
2024/03/23 13:40:56;;;;;;;5.25;0.82;;;;;;;24.45;36.29;99404.22;5075289;28;20067;-78
2024/03/23 13:44:01;;;;;;;2.92;0.90;;;;;;;24.15;36.77;99402.81;5074572;28;20043;-77
2024/03/23 13:47:06;;;;;;;3.58;0.90;;;;;;;24.36;37.57;99416.69;5074999;28;20387;-75
2024/03/23 13:50:10;;;;;;;3.17;1.05;;;;;;;24.40;36.41;99398.63;5070363;28;20044;-75
2024/03/23 13:53:15;;;;;;;3.65;1.10;;;;;;;24.18;37.27;99402.31;5042714;28;20048;-77
2024/03/23 13:56:19;;;;;;;10.45;1.33;;;;;;;23.64;38.66;99412.75;5054835;28;20064;-76
2024/03/23 13:59:24;;;;;;;3.58;1.38;;;;;;;23.91;38.18;99410.28;5055022;28;20100;-76
2024/03/23 14:02:29;;;;;;;6.40;1.45;;;;;;;24.03;38.52;99416.53;5055267;28;20056;-77
2024/03/23 14:05:33;;;;;;;7.90;2.60;;;;;;;24.01;39.28;99413.22;5054681;28;20055;-78
2024/03/23 14:13:11;;;;;;;6.07;1.40;;;;;;;23.27;40.29;99411.34;5054516;28;20052;-76
2024/03/23 14:16:16;;;;;;;5.88;1.70;;;;;;;23.47;40.13;99414.56;5054518;28;20056;-75
2024/03/23 14:19:20;;;;;;;8.88;2.40;;;;;;;23.15;40.99;99410.53;5042185;28;20052;-76
2024/03/23 14:22:26;;;;;;;6.63;1.52;;;;;;;22.94;40.77;99398.25;5054626;28;20376;-78
2024/03/23 14:25:34;;;;;;;5.00;1.60;;;;;;;23.01;40.98;99406.38;5054477;28;20048;-77
2024/03/23 14:28:45;;;;;;;14.18;2.40;;;;;;;23.14;40.77;99417.91;5054105;28;20044;-77